createdAt,value
2018-09-10T00:00:09.669Z,101897.51
2018-09-10T00:02:38.070Z,101890.91
2018-09-10T00:05:06.430Z,101890.72
2018-09-10T00:07:34.786Z,101892.91
2018-09-10T00:10:03.845Z,101897.51
2018-09-10T00:12:32.145Z,101890.91
2018-09-10T00:15:00.441Z,101885.94
2018-09-10T00:17:28.705Z,101888.90
2018-09-10T00:19:57.023Z,101888.74
2018-09-10T00:22:25.341Z,101883.50
2018-09-10T00:24:53.635Z,101885.09
2018-09-10T00:27:21.921Z,101874.80
2018-09-10T00:29:50.569Z,101880.50
2018-09-10T00:32:18.846Z,101879.36
2018-09-10T00:34:47.145Z,101876.64
2018-09-10T00:37:15.423Z,101876.85
2018-09-10T00:39:43.802Z,101879.52
2018-09-10T00:42:12.121Z,101881.48
2018-09-10T00:44:40.451Z,101878.59
2018-09-10T00:47:08.737Z,101880.36
2018-09-10T00:49:37.030Z,101880.50
2018-09-10T00:52:05.337Z,101875.85
2018-09-10T00:54:33.654Z,101876.36
2018-09-10T00:57:01.992Z,101871.61
2018-09-10T00:59:30.290Z,101878.36
2018-09-10T01:01:58.637Z,101877.37
2018-09-10T01:04:26.938Z,101874.09
2018-09-10T01:06:55.277Z,101864.64
2018-09-10T01:09:23.566Z,101865.63
2018-09-10T01:11:51.865Z,101862.50
2018-09-10T01:14:20.178Z,101870.69
2018-09-10T01:16:48.464Z,101868.64
2018-09-10T01:19:16.818Z,101869.28
2018-09-10T01:21:45.119Z,101865.09
2018-09-10T01:24:13.481Z,101867.62
2018-09-10T01:26:41.777Z,101866.12
2018-09-10T01:29:10.145Z,101864.20
2018-09-10T01:31:38.442Z,101862.15
2018-09-10T01:34:12.063Z,101859.16
2018-09-10T01:36:40.517Z,101866.75
2018-09-10T01:39:09.628Z,101862.67
2018-09-10T01:41:37.913Z,101853.20
2018-09-10T01:44:06.274Z,101844.89
2018-09-10T01:46:34.550Z,101841.91
2018-09-10T01:49:02.842Z,101841.76
2018-09-10T01:51:31.330Z,101835.27
2018-09-10T01:53:59.935Z,101833.85
2018-09-10T01:56:28.481Z,101842.85
2018-09-10T01:58:56.795Z,101841.86
2018-09-10T02:01:25.076Z,101838.13
2018-09-10T02:03:53.548Z,101839.70
2018-09-10T02:06:21.877Z,101835.11
2018-09-10T02:09:53.589Z,101833.28
2018-09-10T02:12:25.932Z,101833.85
2018-09-10T02:14:55.661Z,101825.19
2018-09-10T02:17:24.439Z,101822.45
2018-09-10T02:19:52.786Z,101818.81
2018-09-10T02:22:21.592Z,101817.55
2018-09-10T02:24:49.898Z,101816.33
2018-09-10T02:27:18.280Z,101817.80
2018-09-10T02:29:46.566Z,101819.75
2018-09-10T02:32:14.841Z,101824.73
2018-09-10T02:34:43.175Z,101824.50
2018-09-10T02:37:11.457Z,101822.45
2018-09-10T02:39:39.823Z,101823.58
2018-09-10T02:42:08.100Z,101825.31
2018-09-10T02:44:36.402Z,101824.07
2018-09-10T02:47:04.680Z,101813.89
2018-09-10T02:49:33.018Z,101818.81
2018-09-10T02:52:01.293Z,101813.45
2018-09-10T02:54:29.577Z,101814.52
2018-09-10T02:56:57.880Z,101822.41
2018-09-10T02:59:26.148Z,101818.81
2018-09-10T03:01:54.542Z,101810.36
2018-09-10T03:04:22.848Z,101793.88
2018-09-10T03:06:51.779Z,101775.47
2018-09-10T03:09:20.086Z,101775.63
2018-09-10T03:11:48.426Z,101776.89
2018-09-10T03:14:16.965Z,101777.85
2018-09-10T03:16:45.257Z,101781.36
2018-09-10T03:19:13.650Z,101777.16
2018-09-10T03:21:41.949Z,101776.45
2018-09-10T03:24:10.274Z,101777.74
2018-09-10T03:26:38.612Z,101777.41
2018-09-10T03:29:06.878Z,101770.93
2018-09-10T03:31:35.183Z,101777.58
2018-09-10T03:34:04.457Z,101783.48
2018-09-10T03:36:32.777Z,101784.14
2018-09-10T03:39:01.049Z,101783.52
2018-09-10T03:41:29.345Z,101783.45
2018-09-10T03:43:57.625Z,101772.57
2018-09-10T03:46:26.133Z,101772.02
2018-09-10T03:48:54.399Z,101766.28
2018-09-10T03:51:22.661Z,101778.02
2018-09-10T03:53:50.965Z,101773.34
2018-09-10T03:56:19.321Z,101773.12
2018-09-10T03:58:47.621Z,101763.92
2018-09-10T04:01:15.888Z,101761.05
2018-09-10T04:03:44.213Z,101764.53
2018-09-10T04:06:12.544Z,101757.89
2018-09-10T04:08:40.879Z,101753.38
2018-09-10T04:11:09.360Z,101756.30
2018-09-10T04:13:37.674Z,101765.96
2018-09-10T04:16:05.957Z,101758.88
2018-09-10T04:18:34.374Z,101764.19
2018-09-10T04:21:02.673Z,101769.20
2018-09-10T04:23:30.966Z,101773.65
2018-09-10T04:25:59.273Z,101772.87
2018-09-10T04:28:27.561Z,101775.38
2018-09-10T04:30:55.897Z,101777.36
2018-09-10T04:33:24.289Z,101782.95
2018-09-10T04:35:52.648Z,101784.01
2018-09-10T04:38:21.013Z,101784.83
2018-09-10T04:40:49.310Z,101801.41
2018-09-10T04:43:17.825Z,101807.23
2018-09-10T04:45:46.144Z,101805.38
2018-09-10T04:48:14.446Z,101804.66
2018-09-10T04:50:43.715Z,101801.77
2018-09-10T04:53:12.085Z,101807.81
2018-09-10T04:55:40.645Z,101801.28
2018-09-10T04:58:08.982Z,101801.80
2018-09-10T05:00:37.256Z,101803.53
2018-09-10T05:03:05.566Z,101808.18
2018-09-10T05:05:33.893Z,101807.66
2018-09-10T05:08:02.185Z,101797.67
2018-09-10T05:10:30.493Z,101803.63
2018-09-10T05:12:58.771Z,101805.59
2018-09-10T05:15:27.246Z,101808.18
2018-09-10T05:17:55.525Z,101797.34
2018-09-10T05:20:23.901Z,101787.41
2018-09-10T05:22:52.189Z,101792.87
2018-09-10T05:25:20.510Z,101795.89
2018-09-10T05:27:48.773Z,101795.20
2018-09-10T05:30:17.101Z,101805.13
2018-09-10T05:32:45.409Z,101802.82
2018-09-10T05:35:14.729Z,101806.41
2018-09-10T05:37:43.041Z,101814.77
2018-09-10T05:40:11.757Z,101818.84
2018-09-10T05:42:40.280Z,101820.08
2018-09-10T05:45:10.712Z,101823.03
2018-09-10T05:47:39.526Z,101824.02
2018-09-10T05:50:08.133Z,101821.62
2018-09-10T05:52:36.454Z,101803.64
2018-09-10T05:55:04.870Z,101798.66
2018-09-10T05:57:33.409Z,101795.87
2018-09-10T06:00:01.696Z,101800.23
2018-09-10T06:02:31.001Z,101801.23
2018-09-10T06:04:59.295Z,101804.79
2018-09-10T06:07:27.725Z,101800.45
2018-09-10T06:09:56.072Z,101804.55
2018-09-10T06:12:24.373Z,101818.64
2018-09-10T06:14:52.925Z,101814.17
2018-09-10T06:17:21.262Z,101822.64
2018-09-10T06:19:49.574Z,101819.20
2018-09-10T06:22:17.915Z,101821.80
2018-09-10T06:24:46.195Z,101820.87
2018-09-10T06:27:14.488Z,101830.94
2018-09-10T06:29:43.859Z,101824.86
2018-09-10T06:32:12.157Z,101829.72
2018-09-10T06:34:40.431Z,101817.55
2018-09-10T06:37:09.871Z,101817.00
2018-09-10T06:39:38.162Z,101824.67
2018-09-10T06:42:06.515Z,101828.75
2018-09-10T06:44:34.782Z,101834.20
2018-09-10T06:47:03.052Z,101831.58
2018-09-10T06:49:31.465Z,101827.94
2018-09-10T06:51:59.737Z,101821.71
2018-09-10T06:54:28.245Z,101815.58
2018-09-10T06:56:56.539Z,101815.16
2018-09-10T06:59:24.971Z,101804.31
2018-09-10T07:01:53.237Z,101801.12
2018-09-10T07:04:21.560Z,101801.10
2018-09-10T07:06:49.837Z,101809.35
2018-09-10T07:09:18.478Z,101817.09
2018-09-10T07:11:46.804Z,101822.39
2018-09-10T07:14:15.084Z,101821.03
2018-09-10T07:16:44.442Z,101806.27
2018-09-10T07:19:12.733Z,101812.33
2018-09-10T07:21:41.035Z,101810.73
2018-09-10T07:24:09.353Z,101816.05
2018-09-10T07:26:37.647Z,101816.23
2018-09-10T07:29:05.999Z,101818.48
2018-09-10T07:31:34.290Z,101827.00
2018-09-10T07:34:02.626Z,101829.87
2018-09-10T07:36:30.934Z,101840.44
2018-09-10T07:38:59.280Z,101838.31
2018-09-10T07:41:27.574Z,101843.90
2018-09-10T07:43:55.942Z,101835.95
2018-09-10T07:46:24.178Z,101829.38
2018-09-10T07:48:52.616Z,101840.51
2018-09-10T07:51:20.885Z,101840.17
2018-09-10T07:53:49.185Z,101842.31
2018-09-10T07:56:17.525Z,101843.58
2018-09-10T07:58:45.809Z,101840.09
2018-09-10T08:01:14.118Z,101845.12
2018-09-10T08:03:42.425Z,101841.73
2018-09-10T08:06:10.738Z,101836.25
2018-09-10T08:08:39.046Z,101832.94
2018-09-10T08:11:07.385Z,101838.88
2018-09-10T08:13:35.706Z,101833.27
2018-09-10T08:16:04.014Z,101834.84
2018-09-10T08:18:32.431Z,101833.37
2018-09-10T08:21:00.733Z,101832.19
2018-09-10T08:23:28.992Z,101839.63
2018-09-10T08:25:57.313Z,101842.44
2018-09-10T08:28:25.647Z,101842.53
2018-09-10T08:30:53.941Z,101840.59
2018-09-10T08:33:22.229Z,101836.70
2018-09-10T08:35:50.525Z,101842.59
2018-09-10T08:38:19.020Z,101843.80
2018-09-10T08:40:47.298Z,101848.77
2018-09-10T08:43:15.598Z,101831.55
2018-09-10T08:45:43.949Z,101847.37
2018-09-10T08:48:12.260Z,101841.25
2018-09-10T08:50:40.681Z,101843.77
2018-09-10T08:53:09.161Z,101843.23
2018-09-10T08:55:37.581Z,101849.97
2018-09-10T08:58:05.846Z,101848.50
2018-09-10T09:00:34.218Z,101850.98
2018-09-10T09:03:02.461Z,101863.30
2018-09-10T09:05:30.789Z,101861.16
2018-09-10T09:07:59.122Z,101854.27
2018-09-10T09:10:27.353Z,101859.27
2018-09-10T09:12:55.633Z,101868.16
2018-09-10T09:15:23.979Z,101856.25
2018-09-10T09:17:52.269Z,101862.67
2018-09-10T09:20:20.633Z,101864.27
2018-09-10T09:22:49.199Z,101864.98
2018-09-10T09:25:17.836Z,101862.50
2018-09-10T09:27:46.298Z,101862.25
2018-09-10T09:30:14.624Z,101863.11
2018-09-10T09:32:42.867Z,101847.80
2018-09-10T09:35:11.170Z,101854.90
2018-09-10T09:37:44.602Z,101851.97
2018-09-10T09:40:18.261Z,101854.81
2018-09-10T09:42:51.710Z,101843.50
2018-09-10T09:45:25.270Z,101847.01
2018-09-10T09:47:53.629Z,101846.25
2018-09-10T09:50:21.949Z,101846.70
2018-09-10T09:52:50.400Z,101849.13
2018-09-10T09:55:18.727Z,101842.23
2018-09-10T09:57:47.132Z,101837.59
2018-09-10T10:00:15.437Z,101845.22
2018-09-10T10:02:49.097Z,101848.34
2018-09-10T10:05:17.439Z,101843.81
2018-09-10T10:07:45.758Z,101848.84
2018-09-10T10:10:14.080Z,101850.45
2018-09-10T10:12:42.449Z,101842.59
2018-09-10T10:15:10.721Z,101834.66
2018-09-10T10:17:39.106Z,101844.79
2018-09-10T10:20:07.400Z,101843.27
2018-09-10T10:22:35.685Z,101848.57
2018-09-10T10:25:03.962Z,101845.78
2018-09-10T10:27:32.268Z,101849.01
2018-09-10T10:30:01.054Z,101841.35
2018-09-10T10:32:29.341Z,101848.16
2018-09-10T10:34:57.620Z,101844.66
2018-09-10T10:37:25.960Z,101844.47
2018-09-10T10:39:54.245Z,101839.31
2018-09-10T10:42:22.568Z,101842.84
2018-09-10T10:44:50.846Z,101835.49
2018-09-10T10:47:20.204Z,101830.02
2018-09-10T10:49:48.478Z,101839.03
2018-09-10T10:52:16.874Z,101834.59
2018-09-10T10:54:45.154Z,101842.39
2018-09-10T10:57:13.479Z,101849.84
2018-09-10T10:59:41.738Z,101848.59
2018-09-10T11:02:10.104Z,101838.92
2018-09-10T11:04:38.523Z,101850.30
2018-09-10T11:07:07.236Z,101846.09
2018-09-10T11:09:35.554Z,101857.58
2018-09-10T11:12:04.856Z,101870.87
2018-09-10T11:14:33.169Z,101859.64
2018-09-10T11:17:02.433Z,101864.98
2018-09-10T11:19:30.842Z,101864.27
2018-09-10T11:21:59.107Z,101866.31
2018-09-10T11:24:27.409Z,101870.41
2018-09-10T11:26:55.695Z,101870.81
2018-09-10T11:29:23.997Z,101871.15
2018-09-10T11:31:52.275Z,101863.13
2018-09-10T11:34:20.674Z,101863.23
2018-09-10T11:36:49.077Z,101865.86
2018-09-10T11:39:17.383Z,101876.22
2018-09-10T11:41:45.663Z,101880.23
2018-09-10T11:44:13.971Z,101865.10
2018-09-10T11:46:42.338Z,101861.02
2018-09-10T11:49:10.577Z,101876.73
2018-09-10T11:51:38.911Z,101869.58
2018-09-10T11:54:07.182Z,101872.08
2018-09-10T11:56:35.781Z,101881.56
2018-09-10T11:59:04.060Z,101886.70
2018-09-10T12:01:32.377Z,101899.73
2018-09-10T12:04:00.685Z,101897.47
2018-09-10T12:06:29.088Z,101909.41
2018-09-10T12:08:57.369Z,101905.72
2018-09-10T12:11:25.717Z,101912.16
2018-09-10T12:13:53.921Z,101903.73
2018-09-10T12:16:22.201Z,101900.81
2018-09-10T12:18:50.460Z,101906.30
2018-09-10T12:21:18.849Z,101907.57
2018-09-10T12:23:47.169Z,101921.17
2018-09-10T12:26:15.615Z,101929.58
2018-09-10T12:28:43.898Z,101928.93
2018-09-10T12:31:12.381Z,101924.32
2018-09-10T12:33:40.665Z,101938.33
2018-09-10T12:36:10.279Z,101928.17
2018-09-10T12:38:38.573Z,101928.52
2018-09-10T12:41:08.210Z,101933.38
2018-09-10T12:43:36.529Z,101950.23
2018-09-10T12:46:04.835Z,101948.06
2018-09-10T12:48:33.149Z,101954.07
2018-09-10T12:51:17.733Z,101945.58
2018-09-10T12:53:46.029Z,101943.16
2018-09-10T12:56:14.297Z,101928.22
2018-09-10T12:58:42.649Z,101928.86
2018-09-10T13:01:10.938Z,101929.20
2018-09-10T13:03:39.406Z,101914.18
2018-09-10T13:06:07.681Z,101930.29
2018-09-10T13:08:35.986Z,101936.63
2018-09-10T13:11:04.294Z,101930.61
2018-09-10T13:13:32.597Z,101940.14
2018-09-10T13:16:00.870Z,101931.86
2018-09-10T13:18:30.471Z,101924.81
2018-09-10T13:20:58.750Z,101927.72
2018-09-10T13:23:27.056Z,101927.66
2018-09-10T13:25:55.327Z,101916.23
2018-09-10T13:28:23.825Z,101926.25
2018-09-10T13:30:52.117Z,101937.34
2018-09-10T13:33:20.431Z,101947.76
2018-09-10T13:35:48.714Z,101937.74
2018-09-10T13:38:16.966Z,101964.25
2018-09-10T13:40:45.268Z,101961.43
2018-09-10T13:43:13.632Z,101960.24
2018-09-10T13:45:42.101Z,101951.42
2018-09-10T13:48:10.717Z,101952.63
2018-09-10T13:50:39.020Z,101965.22
2018-09-10T13:53:07.577Z,101961.94
2018-09-10T13:55:35.937Z,101965.41
2018-09-10T13:58:04.233Z,101963.08
2018-09-10T14:00:32.635Z,101956.75
2018-09-10T14:03:00.893Z,101962.77
2018-09-10T14:05:29.225Z,101966.41
2018-09-10T14:07:57.506Z,101961.09
2018-09-10T14:10:25.825Z,101959.74
2018-09-10T14:12:54.121Z,101963.08
2018-09-10T14:15:22.433Z,101952.25
2018-09-10T14:17:50.697Z,101953.27
2018-09-10T14:20:20.060Z,101965.59
2018-09-10T14:22:48.365Z,101974.39
2018-09-10T14:25:16.713Z,101977.41
2018-09-10T14:27:44.985Z,101974.08
2018-09-10T14:30:13.309Z,101980.55
2018-09-10T14:32:41.643Z,101984.71
2018-09-10T14:35:09.985Z,101983.52
2018-09-10T14:37:38.289Z,101979.55
2018-09-10T14:40:06.735Z,101985.34
2018-09-10T14:42:35.046Z,101990.00
2018-09-10T14:45:03.336Z,102001.69
2018-09-10T14:47:31.634Z,101995.00
2018-09-10T14:49:59.928Z,101999.52
2018-09-10T14:52:28.345Z,101995.84
2018-09-10T14:54:56.609Z,101995.89
2018-09-10T14:57:25.001Z,101993.14
2018-09-10T14:59:53.340Z,102003.58
2018-09-10T15:02:22.728Z,102005.44
2018-09-10T15:04:51.129Z,102003.81
2018-09-10T15:07:19.452Z,102004.41
2018-09-10T15:09:47.740Z,102003.11
2018-09-10T15:12:16.125Z,102007.59
2018-09-10T15:14:44.962Z,102002.86
2018-09-10T15:17:13.276Z,102003.91
2018-09-10T15:19:41.565Z,102008.06
2018-09-10T15:22:09.841Z,102016.17
2018-09-10T15:24:38.177Z,102029.63
2018-09-10T15:27:06.478Z,102032.12
2018-09-10T15:29:35.861Z,102035.23
2018-09-10T15:32:04.153Z,102028.30
2018-09-10T15:34:33.259Z,102024.39
2018-09-10T15:37:01.584Z,102024.10
2018-09-10T15:39:29.889Z,102029.16
2018-09-10T15:41:58.165Z,102016.05
2018-09-10T15:44:26.501Z,102007.59
2018-09-10T15:46:54.901Z,102018.10
2018-09-10T15:49:23.206Z,102019.70
2018-09-10T15:51:52.005Z,102024.47
2018-09-10T15:54:20.301Z,102024.30
2018-09-10T15:56:48.610Z,102023.31
2018-09-10T15:59:17.981Z,102024.31
2018-09-10T16:01:46.290Z,102033.20
2018-09-10T16:04:14.615Z,102024.84
2018-09-10T16:06:43.926Z,102030.41
2018-09-10T16:09:12.232Z,102035.86
2018-09-10T16:11:40.502Z,102041.48
2018-09-10T16:14:08.816Z,102036.13
2018-09-10T16:16:37.122Z,102027.06
2018-09-10T16:19:05.431Z,102033.47
2018-09-10T16:21:33.783Z,102045.55
2018-09-10T16:24:02.049Z,102036.59
2018-09-10T16:26:31.445Z,102035.42
2018-09-10T16:28:59.735Z,102039.01
2018-09-10T16:31:28.036Z,102032.71
2018-09-10T16:33:56.429Z,102038.42
2018-09-10T16:36:24.740Z,102032.28
2018-09-10T16:38:53.006Z,102027.50
2018-09-10T16:41:21.309Z,102021.23
2018-09-10T16:43:49.590Z,102028.92
2018-09-10T16:46:17.890Z,102030.78
2018-09-10T16:48:46.402Z,102032.11
2018-09-10T16:51:14.709Z,102019.23
2018-09-10T16:53:42.982Z,102022.73
2018-09-10T16:56:11.354Z,102017.09
2018-09-10T16:58:39.718Z,102017.02
2018-09-10T17:01:08.038Z,102013.13
2018-09-10T17:03:36.298Z,102001.09
2018-09-10T17:06:04.641Z,101996.34
2018-09-10T17:08:32.910Z,101994.34
2018-09-10T17:11:01.213Z,102003.25
2018-09-10T17:13:29.493Z,101996.80
2018-09-10T17:15:57.805Z,101998.77
2018-09-10T17:18:26.087Z,102000.34
2018-09-10T17:20:54.393Z,102008.42
2018-09-10T17:23:23.741Z,101998.45
2018-09-10T17:28:45.113Z,102008.82
2018-09-10T17:31:13.571Z,102012.74
2018-09-10T17:33:41.901Z,102012.27
2018-09-10T17:36:10.201Z,102007.23
2018-09-10T17:38:38.504Z,102003.97
2018-09-10T17:41:06.801Z,102009.44
2018-09-10T17:43:35.102Z,102015.02
2018-09-10T17:46:04.579Z,102011.19
2018-09-10T17:48:32.845Z,102017.64
2018-09-10T17:51:01.779Z,102018.16
2018-09-10T17:53:30.160Z,102023.19
2018-09-10T17:55:58.432Z,102016.96
2018-09-10T17:58:26.739Z,102029.27
2018-09-10T18:00:55.111Z,102023.88
2018-09-10T18:03:23.452Z,102023.13
2018-09-10T18:05:51.737Z,102028.49
2018-09-10T18:08:20.045Z,102034.24
2018-09-10T18:10:48.471Z,102040.27
2018-09-10T18:13:16.891Z,102043.63
2018-09-10T18:15:45.341Z,102043.90
2018-09-10T18:18:13.934Z,102031.41
2018-09-10T18:20:43.505Z,102033.77
2018-09-10T18:23:12.072Z,102037.23
2018-09-10T18:25:40.975Z,102032.55
2018-09-10T18:28:09.644Z,102035.45
2018-09-10T18:30:38.358Z,102030.99
2018-09-10T18:33:07.441Z,102033.66
2018-09-10T18:35:37.168Z,102039.67
2018-09-10T18:38:05.941Z,102047.06
2018-09-10T18:40:34.521Z,102047.20
2018-09-10T18:43:03.188Z,102045.05
2018-09-10T18:45:31.765Z,102048.59
2018-09-10T18:48:00.310Z,102051.48
2018-09-10T18:50:28.931Z,102048.72
2018-09-10T18:52:57.422Z,102041.03
2018-09-10T18:55:25.973Z,102037.77
2018-09-10T18:57:54.439Z,102038.00
2018-09-10T19:00:22.914Z,102028.27
2018-09-10T19:02:51.213Z,102042.38
2018-09-10T19:05:19.532Z,102038.97
2018-09-10T19:07:47.889Z,102041.28
2018-09-10T19:10:16.215Z,102039.44
2018-09-10T19:12:44.489Z,102052.30
2018-09-10T19:15:12.785Z,102040.00
2018-09-10T19:17:41.045Z,102033.52
2018-09-10T19:20:09.574Z,102034.18
2018-09-10T19:22:37.931Z,102031.19
2018-09-10T19:25:07.855Z,102028.31
2018-09-10T19:27:37.189Z,102032.91
2018-09-10T19:30:06.170Z,102035.73
2018-09-10T19:32:34.534Z,102038.78
2018-09-10T19:35:02.794Z,102033.64
2018-09-10T19:37:31.089Z,102035.11
2018-09-10T19:39:59.346Z,102037.13
2018-09-10T19:42:27.686Z,102044.42
2018-09-10T19:44:55.950Z,102035.91
2018-09-10T19:47:24.325Z,102035.80
2018-09-10T19:49:52.600Z,102029.86
2018-09-10T19:52:20.897Z,102034.61
2018-09-10T19:54:49.161Z,102036.34
2018-09-10T19:57:17.462Z,102030.64
2018-09-10T19:59:45.733Z,102033.20
2018-09-10T20:02:15.017Z,102032.86
2018-09-10T20:04:43.318Z,102033.06
2018-09-10T20:07:11.604Z,102038.80
2018-09-10T20:09:39.932Z,102030.07
2018-09-10T20:12:08.163Z,102026.65
2018-09-10T20:14:36.449Z,102024.87
2018-09-10T20:17:04.788Z,102025.97
2018-09-10T20:19:33.065Z,102009.02
2018-09-10T20:22:01.391Z,102003.92
2018-09-10T20:24:29.635Z,102003.09
2018-09-10T20:26:57.928Z,101998.45
2018-09-10T20:29:27.362Z,101994.27
2018-09-10T20:31:55.664Z,101987.87
2018-09-10T20:34:24.088Z,101990.11
2018-09-10T20:36:52.480Z,101989.67
2018-09-10T20:39:20.754Z,101978.69
2018-09-10T20:41:49.008Z,101983.55
2018-09-10T20:44:17.282Z,101984.38
2018-09-10T20:46:45.537Z,101984.67
2018-09-10T20:49:13.821Z,101988.89
2018-09-10T20:51:42.108Z,101997.45
2018-09-10T20:54:10.411Z,101999.84
2018-09-10T20:56:38.662Z,102002.49
2018-09-10T20:59:06.909Z,101995.50
2018-09-10T21:01:35.198Z,101998.58
2018-09-10T21:04:03.492Z,101973.50
2018-09-10T21:06:32.237Z,101978.05
2018-09-10T21:09:00.489Z,101983.88
2018-09-10T21:11:28.781Z,101989.67
2018-09-10T21:13:57.052Z,101995.31
2018-09-10T21:16:25.334Z,101993.89
2018-09-10T21:18:53.578Z,101994.38
2018-09-10T21:21:21.837Z,101991.97
2018-09-10T21:23:50.122Z,101994.15
2018-09-10T21:26:18.398Z,102001.20
2018-09-10T21:28:46.665Z,102004.74
2018-09-10T21:31:14.962Z,101998.40
2018-09-10T21:33:43.281Z,102006.78
2018-09-10T21:36:11.553Z,102008.65
2018-09-10T21:38:39.845Z,102002.04
2018-09-10T21:41:08.373Z,102001.61
2018-09-10T21:43:36.750Z,101999.63
2018-09-10T21:46:05.233Z,101992.75
2018-09-10T21:48:33.476Z,101995.66
2018-09-10T21:51:01.743Z,101987.81
2018-09-10T21:53:32.422Z,101983.01
2018-09-10T21:56:00.688Z,101988.83
2018-09-10T21:58:29.012Z,101983.53
2018-09-10T22:00:58.188Z,101989.08
2018-09-10T22:03:26.796Z,101990.41
2018-09-10T22:05:55.529Z,101989.08
2018-09-10T22:08:24.371Z,101983.79
2018-09-10T22:10:52.929Z,101981.52
2018-09-10T22:13:21.229Z,101974.56
2018-09-10T22:15:49.488Z,101975.80
2018-09-10T22:18:17.805Z,101979.91
2018-09-10T22:20:46.103Z,101976.23
2018-09-10T22:23:14.377Z,101975.27
2018-09-10T22:25:42.669Z,101976.50
2018-09-10T22:28:11.069Z,101973.23
2018-09-10T22:30:39.329Z,101982.23
2018-09-10T22:33:08.112Z,101979.24
2018-09-10T22:35:36.392Z,101972.27
2018-09-10T22:38:04.689Z,101971.70
2018-09-10T22:40:33.092Z,101964.05
2018-09-10T22:43:01.365Z,101963.56
2018-09-10T22:45:29.682Z,101965.03
2018-09-10T22:47:58.005Z,101969.34
2018-09-10T22:50:26.545Z,101963.51
2018-09-10T22:52:54.798Z,101967.23
2018-09-10T22:55:23.091Z,101970.56
2018-09-10T22:57:51.350Z,101972.11
2018-09-10T23:00:19.781Z,101962.37
2018-09-10T23:02:48.090Z,101965.52
2018-09-10T23:05:16.409Z,101954.99
2018-09-10T23:07:44.666Z,101956.46
2018-09-10T23:10:12.945Z,101952.98
2018-09-10T23:12:41.209Z,101954.84
2018-09-10T23:15:09.793Z,101944.02
2018-09-10T23:17:39.117Z,101951.11
2018-09-10T23:20:07.766Z,101945.14
2018-09-10T23:22:36.065Z,101946.98
2018-09-10T23:25:04.382Z,101943.95
2018-09-10T23:27:32.748Z,101947.72
2018-09-10T23:30:02.321Z,101948.91
2018-09-10T23:32:30.572Z,101940.02
2018-09-10T23:34:58.845Z,101945.70
2018-09-10T23:37:27.097Z,101938.55
2018-09-10T23:39:55.400Z,101930.73
2018-09-10T23:42:23.658Z,101923.52
2018-09-10T23:44:52.019Z,101916.00
2018-09-10T23:47:20.264Z,101909.98
2018-09-10T23:49:48.765Z,101911.95
2018-09-10T23:52:17.036Z,101916.98
2018-09-10T23:54:45.294Z,101912.47
2018-09-10T23:57:13.592Z,101906.30
2018-09-10T23:59:41.833Z,101909.48
